Boca Raton, FL (33432)

9:33 PM EDT on August 23, 2016 (GMT -0400)
Spanish Village | | Change Station

Elev 13 ft 26.36 °N, 80.09 °W | Updated 3 minutes ago

Partly Cloudy
Partly Cloudy
85.7 °F
Feels Like 98 °F
N
5.0
Wind Variable Wind from NE
Gusts 11.0 mph

Today
High -- | Low -- °F
--% Chance of Precip.
Yesterday
High -- | Low -- °F
Precip. -- in
Pressure 30.09 in
Visibility 10.0 miles
Clouds Few 2100 ft
Heat Index 98 °F
Dew Point 78 °F
Humidity 79%
Rainfall 0.00 in
Snow Depth Not available.
6:56 AM 7:48 PM
Waning Gibbous, 62% visible
METAR KPMP 240053Z 05010KT 10SM FEW021 29/25 A3008 RMK AO2 LTG DSNT E SLP188 T02940250
Pressure 30.09 in
Visibility 10.0 miles
Clouds Few 2100 ft
Heat Index 98 °F
Dew Point 78 °F
Humidity 79%
Rainfall 0.00 in
Snow Depth Not available.
6:56 AM 7:48 PM
Waning Gibbous, 62% visible
METAR KPMP 240053Z 05010KT 10SM FEW021 29/25 A3008 RMK AO2 LTG DSNT E SLP188 T02940250
We continue to monitor Invest 99L for the possibility of development into a tropical depression or storm as it approaches the Lesser Antilles, then heads in the general direction of the Bahamas late in the week.

Invest 99L will potentially be impactful in the near-future as it spreads locally heavy rain into the Leeward Islands and eventually Puerto Rico. A flash flood watch is in effect for the Virgin Islands and Puerto Rico from overnight tonight until noon on Thursday.

10-Day Weather Forecast

Almanac

Astronomy

Aug. 23, 2016 Rise Set
Actual Time
Civil Twilight
Nautical Twilight
Astronomical Twilight
Moon
Length of Visible Light
Length of Day
Tomorrow will be .
, % of the Moon is Illuminated

Today's Extremes

State Highs State Lows

Community

WunderPhotos

Upload Photos

1,934,517 photos uploaded!

WunderBlog® & News

Nearby

Air Quality

  Air Quality AQ Index Pollutant
Not available.

Snow Depth

Station Depth Elevation

Earthquake Activity

City Distance Mag. Time & Date
Minimum magnitude displayed is 2.5.

Coastal Water Temperatures

Place Temperature

Stations

Nearby Weather Stations

Station Location Temp. Windchill Dew Point Humidity Wind Precip. Elev Updated Type
                   

Watches & Warnings

There are currently no watches in effect.